createdAt,value
2022-08-01T04:00:24.657Z,3.00
2022-08-01T04:11:29.521Z,1.30
2022-08-01T04:22:29.393Z,1.80
2022-08-01T04:33:29.300Z,2.00
2022-08-01T04:44:32.585Z,1.60
2022-08-01T04:55:29.026Z,1.80
2022-08-01T05:06:28.907Z,1.50
2022-08-01T05:17:28.815Z,2.30
2022-08-01T05:28:29.043Z,1.80
2022-08-01T05:39:28.623Z,2.40
2022-08-01T05:50:28.412Z,2.70
2022-08-01T06:01:28.283Z,1.60
2022-08-01T06:12:31.271Z,1.80
2022-08-01T06:23:32.126Z,1.10
2022-08-01T06:34:27.904Z,1.60
2022-08-01T06:45:27.775Z,3.20
2022-08-01T06:56:27.650Z,1.80
2022-08-01T07:07:27.529Z,1.50
2022-08-01T07:18:27.408Z,2.40
2022-08-01T07:29:27.318Z,2.20
2022-08-01T07:40:27.186Z,2.00
2022-08-01T07:51:27.028Z,1.30
2022-08-01T08:02:26.971Z,2.40
2022-08-01T08:13:27.879Z,1.30
2022-08-01T08:24:27.733Z,1.70
2022-08-01T08:35:47.693Z,2.00
2022-08-01T08:46:28.430Z,2.20
2022-08-01T08:57:26.288Z,1.60
2022-08-01T09:08:26.170Z,1.90
2022-08-01T09:19:40.686Z,1.90
2022-08-01T09:30:27.044Z,1.90
2022-08-01T09:41:25.817Z,2.00
2022-08-01T09:52:29.027Z,1.40
2022-08-01T10:03:25.622Z,1.60
2022-08-01T10:14:25.429Z,2.50
2022-08-01T10:25:41.910Z,1.50
2022-08-01T10:36:26.196Z,1.40
2022-08-01T10:47:26.979Z,2.00
2022-08-01T10:58:25.943Z,1.50
2022-08-01T11:09:24.829Z,2.00
2022-08-01T11:20:24.737Z,2.00
2022-08-01T11:31:24.622Z,1.90
2022-08-01T11:42:24.465Z,2.00
2022-08-01T11:53:24.330Z,1.60
2022-08-01T12:04:25.212Z,1.60
2022-08-01T12:05:19.498Z,1.70
2022-08-01T12:06:19.199Z,1.80
2022-08-01T12:17:24.069Z,1.00
2022-08-01T12:18:19.071Z,1.20
2022-08-01T12:19:19.048Z,1.60
2022-08-01T12:30:23.987Z,1.60
2022-08-01T12:31:18.919Z,1.60
2022-08-01T12:32:18.906Z,1.50
2022-08-01T12:43:27.907Z,1.50
2022-08-01T12:54:23.684Z,1.20
2022-08-01T13:05:23.550Z,1.20
2022-08-01T13:06:18.545Z,1.40
2022-08-01T13:07:18.532Z,1.70
2022-08-01T13:18:23.414Z,0.90
2022-08-01T13:19:18.397Z,1.00
2022-08-01T13:20:18.390Z,1.50
2022-08-01T13:31:23.264Z,1.10
2022-08-01T13:32:28.465Z,1.20
2022-08-01T13:33:19.242Z,1.40
2022-08-01T13:44:23.130Z,1.80
2022-08-01T13:45:18.125Z,1.60
2022-08-01T13:46:18.706Z,1.60
2022-08-01T13:57:22.978Z,1.50
2022-08-01T13:58:17.971Z,1.50
2022-08-01T13:59:17.970Z,1.40
2022-08-01T14:10:23.833Z,1.00
2022-08-01T14:11:17.834Z,1.00
2022-08-01T14:12:17.814Z,1.50
2022-08-01T14:23:22.768Z,1.10
2022-08-01T14:24:17.684Z,1.30
2022-08-01T14:25:24.105Z,1.70
2022-08-01T14:36:30.848Z,1.20
2022-08-01T14:47:22.739Z,1.20
2022-08-01T14:58:22.315Z,1.70
2022-08-01T15:09:22.190Z,1.10
2022-08-01T15:20:22.081Z,1.30
2022-08-01T15:31:22.959Z,1.20
2022-08-01T15:42:27.147Z,1.00
2022-08-01T15:53:22.702Z,1.40
2022-08-01T16:04:21.580Z,1.60
2022-08-01T16:15:21.464Z,1.30
2022-08-01T16:26:27.904Z,0.90
2022-08-01T16:37:21.222Z,1.70
2022-08-01T16:48:21.099Z,1.10
2022-08-01T16:59:20.975Z,1.40
2022-08-01T17:10:20.854Z,0.80
2022-08-01T17:21:20.756Z,1.50
2022-08-01T17:32:20.632Z,1.30
2022-08-01T17:43:20.487Z,1.40
2022-08-01T17:54:21.368Z,2.00
2022-08-01T18:05:20.244Z,1.60
2022-08-01T18:16:20.115Z,1.80
2022-08-01T18:27:20.036Z,2.70
2022-08-01T18:38:19.876Z,2.80
2022-08-01T18:49:19.805Z,2.80
2022-08-01T19:00:19.643Z,2.60
2022-08-01T19:11:19.503Z,3.10
2022-08-01T19:22:19.394Z,3.30
2022-08-01T19:33:19.263Z,3.60
2022-08-01T19:44:19.135Z,3.70
2022-08-01T19:55:19.011Z,3.10
2022-08-01T20:06:18.901Z,3.90
2022-08-01T20:17:18.794Z,5.00
2022-08-01T20:28:18.650Z,4.50
2022-08-01T20:39:18.520Z,4.30
2022-08-01T20:50:27.777Z,4.30
